sensor_id;sensor_type;location;lat;lon;timestamp;temperature;humidity
5796;DHT22;2924;51.458;7.046;2023-07-24T00:02:23;16.90;99.90
5796;DHT22;2924;51.458;7.046;2023-07-24T00:04:49;16.90;99.90
5796;DHT22;2924;51.458;7.046;2023-07-24T00:07:15;16.90;99.90
5796;DHT22;2924;51.458;7.046;2023-07-24T00:09:40;16.90;99.90
5796;DHT22;2924;51.458;7.046;2023-07-24T00:12:06;16.90;99.90
5796;DHT22;2924;51.458;7.046;2023-07-24T00:14:32;16.80;99.90
5796;DHT22;2924;51.458;7.046;2023-07-24T00:16:57;16.80;99.90
5796;DHT22;2924;51.458;7.046;2023-07-24T00:19:23;16.90;99.90
5796;DHT22;2924;51.458;7.046;2023-07-24T00:21:48;16.90;99.90
5796;DHT22;2924;51.458;7.046;2023-07-24T00:24:14;16.90;99.90
5796;DHT22;2924;51.458;7.046;2023-07-24T00:26:39;17.00;99.90
5796;DHT22;2924;51.458;7.046;2023-07-24T00:29:05;17.00;99.90
5796;DHT22;2924;51.458;7.046;2023-07-24T00:31:31;17.00;99.90
5796;DHT22;2924;51.458;7.046;2023-07-24T00:33:56;17.00;99.90
5796;DHT22;2924;51.458;7.046;2023-07-24T00:36:22;17.00;99.90
5796;DHT22;2924;51.458;7.046;2023-07-24T00:38:47;17.00;99.90
5796;DHT22;2924;51.458;7.046;2023-07-24T00:41:13;17.00;99.90
5796;DHT22;2924;51.458;7.046;2023-07-24T00:43:38;17.00;99.90
5796;DHT22;2924;51.458;7.046;2023-07-24T00:46:04;17.00;99.90
5796;DHT22;2924;51.458;7.046;2023-07-24T00:48:30;17.00;99.90
5796;DHT22;2924;51.458;7.046;2023-07-24T00:50:56;17.00;99.90
5796;DHT22;2924;51.458;7.046;2023-07-24T00:53:21;17.10;99.90
5796;DHT22;2924;51.458;7.046;2023-07-24T00:55:47;17.00;99.90
5796;DHT22;2924;51.458;7.046;2023-07-24T00:58:14;17.00;99.90
5796;DHT22;2924;51.458;7.046;2023-07-24T01:00:41;17.00;99.90
5796;DHT22;2924;51.458;7.046;2023-07-24T01:03:07;17.00;99.90
5796;DHT22;2924;51.458;7.046;2023-07-24T01:05:32;16.90;99.90
5796;DHT22;2924;51.458;7.046;2023-07-24T01:07:58;16.90;99.90
5796;DHT22;2924;51.458;7.046;2023-07-24T01:10:24;17.00;99.90
5796;DHT22;2924;51.458;7.046;2023-07-24T01:13:02;16.90;99.90
5796;DHT22;2924;51.458;7.046;2023-07-24T01:15:33;16.90;99.90
5796;DHT22;2924;51.458;7.046;2023-07-24T01:18:03;16.90;99.90
5796;DHT22;2924;51.458;7.046;2023-07-24T01:20:34;16.90;99.90
5796;DHT22;2924;51.458;7.046;2023-07-24T01:25:35;16.90;99.90
5796;DHT22;2924;51.458;7.046;2023-07-24T01:28:07;16.90;99.90
5796;DHT22;2924;51.458;7.046;2023-07-24T01:30:33;16.90;99.90
5796;DHT22;2924;51.458;7.046;2023-07-24T01:32:59;16.90;99.90
5796;DHT22;2924;51.458;7.046;2023-07-24T01:35:26;16.90;99.90
5796;DHT22;2924;51.458;7.046;2023-07-24T01:37:53;16.90;99.90
5796;DHT22;2924;51.458;7.046;2023-07-24T01:40:21;16.90;99.90
5796;DHT22;2924;51.458;7.046;2023-07-24T01:42:47;16.90;99.90
5796;DHT22;2924;51.458;7.046;2023-07-24T01:45:13;16.90;99.90
5796;DHT22;2924;51.458;7.046;2023-07-24T01:47:39;16.90;99.90
5796;DHT22;2924;51.458;7.046;2023-07-24T01:50:05;17.00;99.90
5796;DHT22;2924;51.458;7.046;2023-07-24T01:52:31;16.90;99.90
5796;DHT22;2924;51.458;7.046;2023-07-24T01:54:56;16.80;99.90
5796;DHT22;2924;51.458;7.046;2023-07-24T01:57:22;16.80;99.90
5796;DHT22;2924;51.458;7.046;2023-07-24T01:59:47;16.80;99.90
5796;DHT22;2924;51.458;7.046;2023-07-24T02:02:14;16.80;99.90
5796;DHT22;2924;51.458;7.046;2023-07-24T02:04:39;16.80;99.90
5796;DHT22;2924;51.458;7.046;2023-07-24T02:07:05;16.80;99.90
5796;DHT22;2924;51.458;7.046;2023-07-24T02:09:30;16.80;99.90
5796;DHT22;2924;51.458;7.046;2023-07-24T02:11:56;16.80;99.90
5796;DHT22;2924;51.458;7.046;2023-07-24T02:14:21;16.80;99.90
5796;DHT22;2924;51.458;7.046;2023-07-24T02:16:47;16.80;99.90
5796;DHT22;2924;51.458;7.046;2023-07-24T02:19:13;16.80;99.90
5796;DHT22;2924;51.458;7.046;2023-07-24T02:21:38;16.80;99.90
5796;DHT22;2924;51.458;7.046;2023-07-24T02:24:06;16.80;99.90
5796;DHT22;2924;51.458;7.046;2023-07-24T02:26:31;16.90;99.90
5796;DHT22;2924;51.458;7.046;2023-07-24T02:28:57;16.90;99.90
5796;DHT22;2924;51.458;7.046;2023-07-24T02:31:22;16.90;99.90
5796;DHT22;2924;51.458;7.046;2023-07-24T02:33:48;16.90;99.90
5796;DHT22;2924;51.458;7.046;2023-07-24T02:36:14;16.90;99.90
5796;DHT22;2924;51.458;7.046;2023-07-24T02:38:40;17.00;99.90
5796;DHT22;2924;51.458;7.046;2023-07-24T02:41:05;17.00;99.90
5796;DHT22;2924;51.458;7.046;2023-07-24T02:43:31;17.10;99.90
5796;DHT22;2924;51.458;7.046;2023-07-24T02:46:03;17.10;99.90
5796;DHT22;2924;51.458;7.046;2023-07-24T02:48:29;17.10;99.90
5796;DHT22;2924;51.458;7.046;2023-07-24T02:50:55;17.20;99.90
5796;DHT22;2924;51.458;7.046;2023-07-24T02:53:20;17.20;99.90
5796;DHT22;2924;51.458;7.046;2023-07-24T02:55:46;17.30;99.90
5796;DHT22;2924;51.458;7.046;2023-07-24T02:58:13;17.30;99.90
5796;DHT22;2924;51.458;7.046;2023-07-24T03:00:39;17.40;99.90
5796;DHT22;2924;51.458;7.046;2023-07-24T03:03:05;17.40;99.90
5796;DHT22;2924;51.458;7.046;2023-07-24T03:05:31;17.40;99.90
5796;DHT22;2924;51.458;7.046;2023-07-24T03:07:57;17.40;99.90
5796;DHT22;2924;51.458;7.046;2023-07-24T03:10:23;17.40;99.90
5796;DHT22;2924;51.458;7.046;2023-07-24T03:12:48;17.40;99.90
5796;DHT22;2924;51.458;7.046;2023-07-24T03:15:14;17.40;99.90
5796;DHT22;2924;51.458;7.046;2023-07-24T03:17:40;17.30;99.90
5796;DHT22;2924;51.458;7.046;2023-07-24T03:20:16;17.30;99.90
5796;DHT22;2924;51.458;7.046;2023-07-24T03:22:42;17.20;99.90
5796;DHT22;2924;51.458;7.046;2023-07-24T03:25:08;17.20;99.90
5796;DHT22;2924;51.458;7.046;2023-07-24T03:27:34;17.20;99.90
5796;DHT22;2924;51.458;7.046;2023-07-24T03:30:00;17.20;99.90
5796;DHT22;2924;51.458;7.046;2023-07-24T03:32:25;17.20;99.90
5796;DHT22;2924;51.458;7.046;2023-07-24T03:34:51;17.20;99.90
5796;DHT22;2924;51.458;7.046;2023-07-24T03:37:16;17.10;99.90
5796;DHT22;2924;51.458;7.046;2023-07-24T03:39:42;17.10;99.90
5796;DHT22;2924;51.458;7.046;2023-07-24T03:42:10;17.10;99.90
5796;DHT22;2924;51.458;7.046;2023-07-24T03:44:39;17.10;99.90
5796;DHT22;2924;51.458;7.046;2023-07-24T03:47:05;17.10;99.90
5796;DHT22;2924;51.458;7.046;2023-07-24T03:49:30;17.10;99.90
5796;DHT22;2924;51.458;7.046;2023-07-24T03:51:56;17.10;99.90
5796;DHT22;2924;51.458;7.046;2023-07-24T03:54:21;17.10;99.90
5796;DHT22;2924;51.458;7.046;2023-07-24T03:56:47;17.10;99.90
5796;DHT22;2924;51.458;7.046;2023-07-24T03:59:12;17.00;99.90
5796;DHT22;2924;51.458;7.046;2023-07-24T04:01:38;17.00;99.90
5796;DHT22;2924;51.458;7.046;2023-07-24T04:04:03;17.00;99.90
5796;DHT22;2924;51.458;7.046;2023-07-24T04:06:29;17.00;99.90
5796;DHT22;2924;51.458;7.046;2023-07-24T04:08:54;17.00;99.90
5796;DHT22;2924;51.458;7.046;2023-07-24T04:11:20;17.00;99.90
5796;DHT22;2924;51.458;7.046;2023-07-24T04:13:46;17.10;99.90
5796;DHT22;2924;51.458;7.046;2023-07-24T04:16:11;17.00;99.90
5796;DHT22;2924;51.458;7.046;2023-07-24T04:18:37;17.00;99.90
5796;DHT22;2924;51.458;7.046;2023-07-24T04:21:02;17.00;99.90
5796;DHT22;2924;51.458;7.046;2023-07-24T04:23:28;17.00;99.90
5796;DHT22;2924;51.458;7.046;2023-07-24T04:25:53;17.00;99.90
5796;DHT22;2924;51.458;7.046;2023-07-24T04:28:19;17.10;99.90
5796;DHT22;2924;51.458;7.046;2023-07-24T04:30:44;17.10;99.90
5796;DHT22;2924;51.458;7.046;2023-07-24T04:33:10;17.10;99.90
5796;DHT22;2924;51.458;7.046;2023-07-24T04:35:35;17.10;99.90
5796;DHT22;2924;51.458;7.046;2023-07-24T04:38:01;17.00;99.90
5796;DHT22;2924;51.458;7.046;2023-07-24T04:40:26;17.00;99.90
5796;DHT22;2924;51.458;7.046;2023-07-24T04:42:52;17.00;99.90
5796;DHT22;2924;51.458;7.046;2023-07-24T04:45:17;17.00;99.90
5796;DHT22;2924;51.458;7.046;2023-07-24T04:47:43;17.10;99.90
5796;DHT22;2924;51.458;7.046;2023-07-24T04:50:09;17.10;99.90
5796;DHT22;2924;51.458;7.046;2023-07-24T04:52:35;17.00;99.90
5796;DHT22;2924;51.458;7.046;2023-07-24T04:55:00;17.00;99.90
5796;DHT22;2924;51.458;7.046;2023-07-24T04:57:26;17.00;99.90
5796;DHT22;2924;51.458;7.046;2023-07-24T04:59:51;17.00;99.90
5796;DHT22;2924;51.458;7.046;2023-07-24T05:02:17;17.10;99.90
5796;DHT22;2924;51.458;7.046;2023-07-24T05:04:42;17.00;99.90
5796;DHT22;2924;51.458;7.046;2023-07-24T05:07:08;17.10;99.90
5796;DHT22;2924;51.458;7.046;2023-07-24T05:09:33;17.10;99.90
5796;DHT22;2924;51.458;7.046;2023-07-24T05:11:59;17.10;99.90
5796;DHT22;2924;51.458;7.046;2023-07-24T05:14:24;17.10;99.90
5796;DHT22;2924;51.458;7.046;2023-07-24T05:16:50;17.10;99.90
5796;DHT22;2924;51.458;7.046;2023-07-24T05:19:15;17.20;99.90
5796;DHT22;2924;51.458;7.046;2023-07-24T05:21:41;17.20;99.90
5796;DHT22;2924;51.458;7.046;2023-07-24T05:24:06;17.20;99.90
5796;DHT22;2924;51.458;7.046;2023-07-24T05:26:32;17.20;99.90
5796;DHT22;2924;51.458;7.046;2023-07-24T05:28:58;17.20;99.90
5796;DHT22;2924;51.458;7.046;2023-07-24T05:31:23;17.20;99.90
5796;DHT22;2924;51.458;7.046;2023-07-24T05:33:49;17.20;99.90
5796;DHT22;2924;51.458;7.046;2023-07-24T05:36:14;17.20;99.90
5796;DHT22;2924;51.458;7.046;2023-07-24T05:38:40;17.10;99.90
5796;DHT22;2924;51.458;7.046;2023-07-24T05:41:05;17.10;99.90
5796;DHT22;2924;51.458;7.046;2023-07-24T05:43:31;17.20;99.90
5796;DHT22;2924;51.458;7.046;2023-07-24T05:45:58;17.20;99.90
5796;DHT22;2924;51.458;7.046;2023-07-24T05:48:24;17.30;99.90
5796;DHT22;2924;51.458;7.046;2023-07-24T05:50:50;17.50;99.90
5796;DHT22;2924;51.458;7.046;2023-07-24T05:53:16;17.70;99.90
5796;DHT22;2924;51.458;7.046;2023-07-24T05:55:42;17.80;99.90
5796;DHT22;2924;51.458;7.046;2023-07-24T05:58:08;17.90;99.90
5796;DHT22;2924;51.458;7.046;2023-07-24T06:00:34;18.00;99.90
5796;DHT22;2924;51.458;7.046;2023-07-24T06:03:00;18.00;99.90
5796;DHT22;2924;51.458;7.046;2023-07-24T06:05:26;18.00;99.90
5796;DHT22;2924;51.458;7.046;2023-07-24T06:07:51;18.00;99.90
5796;DHT22;2924;51.458;7.046;2023-07-24T06:10:17;18.10;99.90
5796;DHT22;2924;51.458;7.046;2023-07-24T06:12:42;18.10;99.90
5796;DHT22;2924;51.458;7.046;2023-07-24T06:15:08;18.30;99.90
5796;DHT22;2924;51.458;7.046;2023-07-24T06:17:34;18.50;99.90
5796;DHT22;2924;51.458;7.046;2023-07-24T06:19:59;18.50;99.90
5796;DHT22;2924;51.458;7.046;2023-07-24T06:22:25;18.60;99.90
5796;DHT22;2924;51.458;7.046;2023-07-24T06:24:50;18.50;99.90
5796;DHT22;2924;51.458;7.046;2023-07-24T06:27:16;18.40;99.90
5796;DHT22;2924;51.458;7.046;2023-07-24T06:29:42;18.40;99.90
5796;DHT22;2924;51.458;7.046;2023-07-24T06:32:07;18.30;99.90
5796;DHT22;2924;51.458;7.046;2023-07-24T06:34:34;18.30;99.90
5796;DHT22;2924;51.458;7.046;2023-07-24T06:36:59;18.20;99.90
5796;DHT22;2924;51.458;7.046;2023-07-24T06:39:25;18.20;99.90
5796;DHT22;2924;51.458;7.046;2023-07-24T06:41:54;18.20;99.90
5796;DHT22;2924;51.458;7.046;2023-07-24T06:44:21;18.20;99.90
5796;DHT22;2924;51.458;7.046;2023-07-24T06:46:47;18.30;99.90
5796;DHT22;2924;51.458;7.046;2023-07-24T06:49:13;18.40;99.90
5796;DHT22;2924;51.458;7.046;2023-07-24T06:51:38;18.50;99.90
5796;DHT22;2924;51.458;7.046;2023-07-24T06:54:05;18.60;99.90
5796;DHT22;2924;51.458;7.046;2023-07-24T06:56:31;18.70;99.90
5796;DHT22;2924;51.458;7.046;2023-07-24T06:58:56;18.80;99.90
5796;DHT22;2924;51.458;7.046;2023-07-24T07:01:22;18.90;99.90
5796;DHT22;2924;51.458;7.046;2023-07-24T07:03:48;19.10;99.90
5796;DHT22;2924;51.458;7.046;2023-07-24T07:06:13;19.00;99.90
5796;DHT22;2924;51.458;7.046;2023-07-24T07:08:39;19.00;99.90
5796;DHT22;2924;51.458;7.046;2023-07-24T07:11:04;19.00;99.90
5796;DHT22;2924;51.458;7.046;2023-07-24T07:13:30;19.20;99.90
5796;DHT22;2924;51.458;7.046;2023-07-24T07:15:55;19.50;99.90
5796;DHT22;2924;51.458;7.046;2023-07-24T07:18:21;19.70;99.90
5796;DHT22;2924;51.458;7.046;2023-07-24T07:20:47;19.90;99.90
5796;DHT22;2924;51.458;7.046;2023-07-24T07:23:13;19.90;99.90
5796;DHT22;2924;51.458;7.046;2023-07-24T07:25:39;19.80;99.90
5796;DHT22;2924;51.458;7.046;2023-07-24T07:28:05;19.70;99.90
5796;DHT22;2924;51.458;7.046;2023-07-24T07:30:31;19.50;99.90
5796;DHT22;2924;51.458;7.046;2023-07-24T07:32:56;19.40;99.90
5796;DHT22;2924;51.458;7.046;2023-07-24T07:35:22;19.30;99.90
5796;DHT22;2924;51.458;7.046;2023-07-24T07:37:48;19.30;99.90
5796;DHT22;2924;51.458;7.046;2023-07-24T07:40:13;19.20;99.90
5796;DHT22;2924;51.458;7.046;2023-07-24T07:42:39;19.20;99.90
5796;DHT22;2924;51.458;7.046;2023-07-24T07:45:05;19.20;99.90
5796;DHT22;2924;51.458;7.046;2023-07-24T07:47:30;19.40;99.90
5796;DHT22;2924;51.458;7.046;2023-07-24T07:49:56;19.50;99.90
5796;DHT22;2924;51.458;7.046;2023-07-24T07:52:21;19.70;99.90
5796;DHT22;2924;51.458;7.046;2023-07-24T07:54:48;19.90;99.90
5796;DHT22;2924;51.458;7.046;2023-07-24T07:57:15;20.10;99.90
5796;DHT22;2924;51.458;7.046;2023-07-24T07:59:41;19.90;99.90
5796;DHT22;2924;51.458;7.046;2023-07-24T08:02:07;19.90;99.90
5796;DHT22;2924;51.458;7.046;2023-07-24T08:04:33;19.80;99.90
5796;DHT22;2924;51.458;7.046;2023-07-24T08:06:59;19.80;99.90
5796;DHT22;2924;51.458;7.046;2023-07-24T08:09:24;19.90;99.90
5796;DHT22;2924;51.458;7.046;2023-07-24T08:11:50;20.10;99.90
5796;DHT22;2924;51.458;7.046;2023-07-24T08:14:17;20.10;99.90
5796;DHT22;2924;51.458;7.046;2023-07-24T08:16:43;20.00;99.90
5796;DHT22;2924;51.458;7.046;2023-07-24T08:19:08;19.90;99.90
5796;DHT22;2924;51.458;7.046;2023-07-24T08:21:34;19.80;99.90
5796;DHT22;2924;51.458;7.046;2023-07-24T08:24:00;19.80;99.90
5796;DHT22;2924;51.458;7.046;2023-07-24T08:26:27;19.80;99.90
5796;DHT22;2924;51.458;7.046;2023-07-24T08:28:53;19.70;99.90
5796;DHT22;2924;51.458;7.046;2023-07-24T08:31:19;19.50;99.90
5796;DHT22;2924;51.458;7.046;2023-07-24T08:33:44;19.30;99.90
5796;DHT22;2924;51.458;7.046;2023-07-24T08:36:10;19.10;99.90
5796;DHT22;2924;51.458;7.046;2023-07-24T08:38:38;19.00;99.90
5796;DHT22;2924;51.458;7.046;2023-07-24T08:41:11;18.90;99.90
5796;DHT22;2924;51.458;7.046;2023-07-24T08:43:39;18.90;99.90
5796;DHT22;2924;51.458;7.046;2023-07-24T08:46:06;19.30;99.90
5796;DHT22;2924;51.458;7.046;2023-07-24T08:48:33;20.00;99.90
5796;DHT22;2924;51.458;7.046;2023-07-24T08:51:02;20.80;99.90
5796;DHT22;2924;51.458;7.046;2023-07-24T08:53:29;22.00;99.90
5796;DHT22;2924;51.458;7.046;2023-07-24T08:55:56;23.20;99.90
5796;DHT22;2924;51.458;7.046;2023-07-24T08:58:22;24.30;99.90
5796;DHT22;2924;51.458;7.046;2023-07-24T09:00:48;24.70;99.90
5796;DHT22;2924;51.458;7.046;2023-07-24T09:03:13;24.50;99.90
5796;DHT22;2924;51.458;7.046;2023-07-24T09:05:39;24.30;99.90
5796;DHT22;2924;51.458;7.046;2023-07-24T09:08:04;24.00;99.90
5796;DHT22;2924;51.458;7.046;2023-07-24T09:10:30;24.00;99.90
5796;DHT22;2924;51.458;7.046;2023-07-24T09:12:55;24.40;99.90
5796;DHT22;2924;51.458;7.046;2023-07-24T09:15:21;24.70;99.90
5796;DHT22;2924;51.458;7.046;2023-07-24T09:17:50;25.00;99.90
5796;DHT22;2924;51.458;7.046;2023-07-24T09:20:17;25.10;99.90
5796;DHT22;2924;51.458;7.046;2023-07-24T09:22:52;24.70;99.90
5796;DHT22;2924;51.458;7.046;2023-07-24T09:25:18;24.90;99.90
5796;DHT22;2924;51.458;7.046;2023-07-24T09:27:44;25.50;99.90
5796;DHT22;2924;51.458;7.046;2023-07-24T09:30:13;25.50;99.90
5796;DHT22;2924;51.458;7.046;2023-07-24T09:32:54;24.80;99.90
5796;DHT22;2924;51.458;7.046;2023-07-24T09:35:21;24.00;99.90
5796;DHT22;2924;51.458;7.046;2023-07-24T09:38:06;23.50;99.90
5796;DHT22;2924;51.458;7.046;2023-07-24T09:43:16;22.50;99.90
5796;DHT22;2924;51.458;7.046;2023-07-24T09:45:43;22.40;99.90
5796;DHT22;2924;51.458;7.046;2023-07-24T09:48:09;22.20;99.90
5796;DHT22;2924;51.458;7.046;2023-07-24T09:50:38;22.10;99.90
5796;DHT22;2924;51.458;7.046;2023-07-24T09:53:06;21.90;99.90
5796;DHT22;2924;51.458;7.046;2023-07-24T09:56:21;21.70;99.90
5796;DHT22;2924;51.458;7.046;2023-07-24T09:58:28;21.70;99.90
5796;DHT22;2924;51.458;7.046;2023-07-24T10:00:55;21.90;99.90
5796;DHT22;2924;51.458;7.046;2023-07-24T10:03:22;21.80;99.90
5796;DHT22;2924;51.458;7.046;2023-07-24T10:05:48;21.60;99.90
5796;DHT22;2924;51.458;7.046;2023-07-24T10:08:18;21.40;99.90
5796;DHT22;2924;51.458;7.046;2023-07-24T10:10:44;21.00;99.90
5796;DHT22;2924;51.458;7.046;2023-07-24T10:13:11;20.60;99.90
5796;DHT22;2924;51.458;7.046;2023-07-24T10:15:41;20.50;99.90
5796;DHT22;2924;51.458;7.046;2023-07-24T10:18:07;20.50;99.90
5796;DHT22;2924;51.458;7.046;2023-07-24T10:20:38;20.40;99.90
5796;DHT22;2924;51.458;7.046;2023-07-24T10:23:05;20.40;99.90
5796;DHT22;2924;51.458;7.046;2023-07-24T10:25:33;20.40;99.90
5796;DHT22;2924;51.458;7.046;2023-07-24T10:30:33;20.80;99.90
5796;DHT22;2924;51.458;7.046;2023-07-24T10:33:13;21.50;99.90
5796;DHT22;2924;51.458;7.046;2023-07-24T10:35:46;22.40;99.90
5796;DHT22;2924;51.458;7.046;2023-07-24T10:38:14;23.10;99.90
5796;DHT22;2924;51.458;7.046;2023-07-24T10:40:45;23.50;99.90
5796;DHT22;2924;51.458;7.046;2023-07-24T10:43:13;23.30;99.90
5796;DHT22;2924;51.458;7.046;2023-07-24T10:48:12;23.10;99.90
5796;DHT22;2924;51.458;7.046;2023-07-24T10:50:43;22.50;99.90
5796;DHT22;2924;51.458;7.046;2023-07-24T10:53:10;22.40;99.90
5796;DHT22;2924;51.458;7.046;2023-07-24T10:55:37;22.10;99.90
5796;DHT22;2924;51.458;7.046;2023-07-24T10:58:02;22.00;99.90
5796;DHT22;2924;51.458;7.046;2023-07-24T11:00:28;21.80;99.90
5796;DHT22;2924;51.458;7.046;2023-07-24T11:02:54;21.50;99.90
5796;DHT22;2924;51.458;7.046;2023-07-24T11:05:22;21.30;99.90
5796;DHT22;2924;51.458;7.046;2023-07-24T11:07:48;21.20;99.90
5796;DHT22;2924;51.458;7.046;2023-07-24T11:10:20;21.20;99.90
5796;DHT22;2924;51.458;7.046;2023-07-24T11:12:46;21.10;99.90
5796;DHT22;2924;51.458;7.046;2023-07-24T11:15:12;20.90;99.90
5796;DHT22;2924;51.458;7.046;2023-07-24T11:17:41;20.80;99.90
5796;DHT22;2924;51.458;7.046;2023-07-24T11:20:11;20.60;99.90
5796;DHT22;2924;51.458;7.046;2023-07-24T11:22:42;20.30;99.90
5796;DHT22;2924;51.458;7.046;2023-07-24T11:25:09;20.00;99.90
5796;DHT22;2924;51.458;7.046;2023-07-24T11:27:39;19.90;99.90
5796;DHT22;2924;51.458;7.046;2023-07-24T11:30:07;19.70;99.90
5796;DHT22;2924;51.458;7.046;2023-07-24T11:32:33;19.40;99.90
5796;DHT22;2924;51.458;7.046;2023-07-24T11:35:00;19.20;99.90
5796;DHT22;2924;51.458;7.046;2023-07-24T11:37:25;19.10;99.90
5796;DHT22;2924;51.458;7.046;2023-07-24T11:39:59;18.90;99.90
5796;DHT22;2924;51.458;7.046;2023-07-24T11:42:28;18.70;99.90
5796;DHT22;2924;51.458;7.046;2023-07-24T11:44:54;18.40;99.90
5796;DHT22;2924;51.458;7.046;2023-07-24T11:47:19;18.10;99.90
5796;DHT22;2924;51.458;7.046;2023-07-24T11:50:02;17.90;99.90
5796;DHT22;2924;51.458;7.046;2023-07-24T11:52:52;17.70;99.90
5796;DHT22;2924;51.458;7.046;2023-07-24T11:55:31;17.70;99.90
5796;DHT22;2924;51.458;7.046;2023-07-24T11:58:01;17.60;99.90
5796;DHT22;2924;51.458;7.046;2023-07-24T12:00:37;17.50;99.90
5796;DHT22;2924;51.458;7.046;2023-07-24T12:03:03;17.00;99.90
5796;DHT22;2924;51.458;7.046;2023-07-24T12:05:37;16.60;99.90
5796;DHT22;2924;51.458;7.046;2023-07-24T12:08:02;16.40;99.90
5796;DHT22;2924;51.458;7.046;2023-07-24T12:10:28;16.10;99.90
5796;DHT22;2924;51.458;7.046;2023-07-24T12:12:54;16.00;99.90
5796;DHT22;2924;51.458;7.046;2023-07-24T12:15:23;15.80;99.90
5796;DHT22;2924;51.458;7.046;2023-07-24T12:17:48;15.80;99.90
5796;DHT22;2924;51.458;7.046;2023-07-24T12:20:14;15.70;99.90
5796;DHT22;2924;51.458;7.046;2023-07-24T12:22:39;15.70;99.90
5796;DHT22;2924;51.458;7.046;2023-07-24T12:25:06;15.60;99.90
5796;DHT22;2924;51.458;7.046;2023-07-24T12:27:32;15.60;99.90
5796;DHT22;2924;51.458;7.046;2023-07-24T12:29:58;15.50;99.90
5796;DHT22;2924;51.458;7.046;2023-07-24T12:32:24;15.60;99.90
5796;DHT22;2924;51.458;7.046;2023-07-24T12:34:50;15.60;99.90
5796;DHT22;2924;51.458;7.046;2023-07-24T12:37:17;15.70;99.90
5796;DHT22;2924;51.458;7.046;2023-07-24T12:39:44;16.00;99.90
5796;DHT22;2924;51.458;7.046;2023-07-24T12:42:10;16.40;99.90
5796;DHT22;2924;51.458;7.046;2023-07-24T12:44:36;16.60;99.90
5796;DHT22;2924;51.458;7.046;2023-07-24T12:47:03;16.90;99.90
5796;DHT22;2924;51.458;7.046;2023-07-24T12:49:28;17.20;99.90
5796;DHT22;2924;51.458;7.046;2023-07-24T12:51:54;17.50;99.90
5796;DHT22;2924;51.458;7.046;2023-07-24T12:54:19;17.90;99.90
5796;DHT22;2924;51.458;7.046;2023-07-24T12:56:47;18.30;99.90
5796;DHT22;2924;51.458;7.046;2023-07-24T12:59:12;18.60;99.90
5796;DHT22;2924;51.458;7.046;2023-07-24T13:01:38;19.00;99.90
5796;DHT22;2924;51.458;7.046;2023-07-24T13:04:03;19.50;99.90
5796;DHT22;2924;51.458;7.046;2023-07-24T13:06:29;20.10;99.90
5796;DHT22;2924;51.458;7.046;2023-07-24T13:08:55;20.60;99.90
5796;DHT22;2924;51.458;7.046;2023-07-24T13:11:20;21.10;99.90
5796;DHT22;2924;51.458;7.046;2023-07-24T13:13:46;21.40;99.90
5796;DHT22;2924;51.458;7.046;2023-07-24T13:16:12;21.90;99.90
5796;DHT22;2924;51.458;7.046;2023-07-24T13:18:38;22.40;99.90
5796;DHT22;2924;51.458;7.046;2023-07-24T13:21:03;22.90;99.90
5796;DHT22;2924;51.458;7.046;2023-07-24T13:23:31;23.20;99.90
5796;DHT22;2924;51.458;7.046;2023-07-24T13:25:57;23.30;99.90
5796;DHT22;2924;51.458;7.046;2023-07-24T13:28:23;23.50;99.90
5796;DHT22;2924;51.458;7.046;2023-07-24T13:30:48;23.60;99.90
5796;DHT22;2924;51.458;7.046;2023-07-24T13:33:14;23.70;99.90
5796;DHT22;2924;51.458;7.046;2023-07-24T13:35:39;23.90;99.90
5796;DHT22;2924;51.458;7.046;2023-07-24T13:38:05;24.10;99.90
5796;DHT22;2924;51.458;7.046;2023-07-24T13:40:33;24.10;99.90
5796;DHT22;2924;51.458;7.046;2023-07-24T13:42:59;24.20;99.90
5796;DHT22;2924;51.458;7.046;2023-07-24T13:45:25;24.20;99.90
5796;DHT22;2924;51.458;7.046;2023-07-24T13:47:50;24.40;99.90
5796;DHT22;2924;51.458;7.046;2023-07-24T13:50:16;24.80;99.90
5796;DHT22;2924;51.458;7.046;2023-07-24T13:52:41;24.70;99.90
5796;DHT22;2924;51.458;7.046;2023-07-24T13:55:07;24.40;99.90
5796;DHT22;2924;51.458;7.046;2023-07-24T13:57:33;24.40;99.90
5796;DHT22;2924;51.458;7.046;2023-07-24T13:59:58;24.60;99.90
5796;DHT22;2924;51.458;7.046;2023-07-24T14:02:24;24.60;99.90
5796;DHT22;2924;51.458;7.046;2023-07-24T14:04:49;24.70;99.90
5796;DHT22;2924;51.458;7.046;2023-07-24T14:07:15;25.00;99.90
5796;DHT22;2924;51.458;7.046;2023-07-24T14:09:40;25.50;99.90
5796;DHT22;2924;51.458;7.046;2023-07-24T14:12:06;25.70;99.90
5796;DHT22;2924;51.458;7.046;2023-07-24T14:14:32;25.60;99.90
5796;DHT22;2924;51.458;7.046;2023-07-24T14:16:57;25.80;99.90
5796;DHT22;2924;51.458;7.046;2023-07-24T14:19:23;26.10;99.90
5796;DHT22;2924;51.458;7.046;2023-07-24T14:21:50;26.30;99.90
5796;DHT22;2924;51.458;7.046;2023-07-24T14:24:15;26.10;99.90
5796;DHT22;2924;51.458;7.046;2023-07-24T14:26:41;26.00;99.90
5796;DHT22;2924;51.458;7.046;2023-07-24T14:29:06;25.80;99.90
5796;DHT22;2924;51.458;7.046;2023-07-24T14:31:32;25.70;99.90
5796;DHT22;2924;51.458;7.046;2023-07-24T14:33:58;25.60;99.90
5796;DHT22;2924;51.458;7.046;2023-07-24T14:36:23;25.70;99.90
5796;DHT22;2924;51.458;7.046;2023-07-24T14:38:51;25.60;99.90
5796;DHT22;2924;51.458;7.046;2023-07-24T14:41:17;25.80;99.90
5796;DHT22;2924;51.458;7.046;2023-07-24T14:43:42;26.40;99.90
5796;DHT22;2924;51.458;7.046;2023-07-24T14:46:08;26.50;99.90
5796;DHT22;2924;51.458;7.046;2023-07-24T14:48:33;26.10;99.90
5796;DHT22;2924;51.458;7.046;2023-07-24T14:50:59;25.60;99.90
5796;DHT22;2924;51.458;7.046;2023-07-24T14:53:25;25.10;99.90
5796;DHT22;2924;51.458;7.046;2023-07-24T14:55:50;24.40;99.90
5796;DHT22;2924;51.458;7.046;2023-07-24T14:58:16;23.90;99.90
5796;DHT22;2924;51.458;7.046;2023-07-24T15:00:42;23.10;99.90
5796;DHT22;2924;51.458;7.046;2023-07-24T15:03:07;22.20;99.90
5796;DHT22;2924;51.458;7.046;2023-07-24T15:05:33;21.50;99.90
5796;DHT22;2924;51.458;7.046;2023-07-24T15:07:59;20.70;99.90
5796;DHT22;2924;51.458;7.046;2023-07-24T15:10:24;20.60;99.90
5796;DHT22;2924;51.458;7.046;2023-07-24T15:12:50;20.70;99.90
5796;DHT22;2924;51.458;7.046;2023-07-24T15:15:15;20.80;99.90
5796;DHT22;2924;51.458;7.046;2023-07-24T15:17:41;21.20;99.90
5796;DHT22;2924;51.458;7.046;2023-07-24T15:20:07;21.80;99.90
5796;DHT22;2924;51.458;7.046;2023-07-24T15:22:33;22.30;99.90
5796;DHT22;2924;51.458;7.046;2023-07-24T15:24:59;22.30;99.90
5796;DHT22;2924;51.458;7.046;2023-07-24T15:27:25;22.50;99.90
5796;DHT22;2924;51.458;7.046;2023-07-24T15:29:50;22.80;99.90
5796;DHT22;2924;51.458;7.046;2023-07-24T15:32:16;22.80;99.90
5796;DHT22;2924;51.458;7.046;2023-07-24T15:34:42;22.70;99.90
5796;DHT22;2924;51.458;7.046;2023-07-24T15:37:08;23.20;99.90
5796;DHT22;2924;51.458;7.046;2023-07-24T15:39:35;23.20;99.90
5796;DHT22;2924;51.458;7.046;2023-07-24T15:42:01;23.10;99.90
5796;DHT22;2924;51.458;7.046;2023-07-24T15:44:27;23.40;99.90
5796;DHT22;2924;51.458;7.046;2023-07-24T15:46:52;23.80;99.90
5796;DHT22;2924;51.458;7.046;2023-07-24T15:49:18;24.10;99.90
5796;DHT22;2924;51.458;7.046;2023-07-24T15:51:43;23.70;99.90
5796;DHT22;2924;51.458;7.046;2023-07-24T15:54:09;23.00;99.90
5796;DHT22;2924;51.458;7.046;2023-07-24T15:56:36;22.40;99.90
5796;DHT22;2924;51.458;7.046;2023-07-24T15:59:02;21.90;99.90
5796;DHT22;2924;51.458;7.046;2023-07-24T16:01:27;21.50;99.90
5796;DHT22;2924;51.458;7.046;2023-07-24T16:03:53;21.30;99.90
5796;DHT22;2924;51.458;7.046;2023-07-24T16:06:19;21.10;99.90
5796;DHT22;2924;51.458;7.046;2023-07-24T16:08:44;20.80;99.90